Breezewood Park, Indiana
Current Conditions -  °F | °C
As of 3:53 PM on Friday 19 Dec 2014 (Local Time) from KMIE Reporting Station
Haze Haze  
Wind Chill: 30°   Ceiling: 2900
Heat Index: 30°   Visibility: 6mi
Dew Point: 24°   Wind: 0mph
Humidity: 79%   Direction: NA
Pressure: 30.25"   Gusts: NA
Location:  40.1286°N, 85.3767°W
Report Text: KMIE 192053Z 00000KT 6SM HZ OVC029 M01/M04 A3025 RMK AO2 SLP252 T10111044 51002
Loading
Personal Weather Stations






























Interactive Weather Map New forecast layout! Learn more

10-Day Weather Forecast

Advertisements
Track Severe Weather on mobile